createdAt,value
2024-01-05T00:00:46.803Z,5.90
2024-01-05T00:03:14.778Z,5.90
2024-01-05T00:05:42.952Z,5.80
2024-01-05T00:08:10.845Z,5.80
2024-01-05T00:10:38.654Z,5.90
2024-01-05T00:13:08.396Z,5.90
2024-01-05T00:15:36.274Z,6.00
2024-01-05T00:18:07.653Z,6.10
2024-01-05T00:20:35.622Z,6.20
2024-01-05T00:23:04.430Z,6.20
2024-01-05T00:25:32.408Z,6.10
2024-01-05T00:28:00.358Z,6.20
2024-01-05T00:30:28.537Z,6.10
2024-01-05T00:32:56.502Z,6.20
2024-01-05T00:35:25.744Z,6.20
2024-01-05T00:37:53.588Z,6.20
2024-01-05T00:40:22.487Z,6.20
2024-01-05T00:42:50.312Z,6.20
2024-01-05T00:45:18.226Z,6.20
2024-01-05T00:47:46.124Z,6.20
2024-01-05T00:50:14.148Z,6.20
2024-01-05T00:52:43.371Z,6.20
2024-01-05T00:55:11.349Z,6.20
2024-01-05T00:57:45.268Z,6.10
2024-01-05T01:00:14.585Z,6.20
2024-01-05T01:02:43.151Z,6.20
2024-01-05T01:05:11.266Z,6.20
2024-01-05T01:07:42.667Z,6.20
2024-01-05T01:10:11.017Z,6.20
2024-01-05T01:12:39.177Z,6.20
2024-01-05T01:15:08.850Z,6.20
2024-01-05T01:17:37.346Z,6.20
2024-01-05T01:20:06.022Z,6.30
2024-01-05T01:22:33.968Z,6.20
2024-01-05T01:25:03.297Z,6.10
2024-01-05T01:27:31.770Z,6.00
2024-01-05T01:29:59.676Z,6.00
2024-01-05T01:32:29.411Z,6.00
2024-01-05T01:34:57.419Z,5.90
2024-01-05T01:37:25.268Z,6.00
2024-01-05T01:39:53.238Z,6.00
2024-01-05T01:42:22.556Z,6.10
2024-01-05T01:44:50.471Z,6.00
2024-01-05T01:47:18.477Z,5.90
2024-01-05T01:49:46.509Z,5.90
2024-01-05T01:52:14.519Z,6.00
2024-01-05T01:54:42.755Z,5.90
2024-01-05T01:57:10.859Z,5.90
2024-01-05T01:59:40.208Z,6.00
2024-01-05T02:02:08.184Z,6.10
2024-01-05T02:04:37.616Z,6.00
2024-01-05T02:07:06.109Z,6.20
2024-01-05T02:09:34.754Z,6.20
2024-01-05T02:12:02.740Z,6.20
2024-01-05T02:14:30.606Z,6.20
2024-01-05T02:17:00.783Z,6.50
2024-01-05T02:19:28.823Z,6.80
2024-01-05T02:22:00.483Z,7.20
2024-01-05T02:24:30.324Z,7.40
2024-01-05T02:26:58.311Z,7.40
2024-01-05T02:29:26.180Z,7.50
2024-01-05T02:31:54.676Z,7.50
2024-01-05T02:34:22.665Z,7.40
2024-01-05T02:36:50.576Z,7.40
2024-01-05T02:39:18.410Z,7.40
2024-01-05T02:41:47.589Z,7.30
2024-01-05T02:44:15.490Z,7.20
2024-01-05T02:46:43.622Z,7.40
2024-01-05T02:49:11.726Z,7.30
2024-01-05T02:51:41.014Z,7.20
2024-01-05T02:54:09.016Z,7.20
2024-01-05T02:56:37.069Z,7.20
2024-01-05T02:59:07.737Z,7.20
2024-01-05T03:01:35.624Z,7.20
2024-01-05T03:04:03.667Z,7.20
2024-01-05T03:06:31.672Z,7.20
2024-01-05T03:08:59.647Z,7.10
2024-01-05T03:11:27.686Z,7.10
2024-01-05T03:13:55.499Z,7.00
2024-01-05T03:16:24.660Z,7.00
2024-01-05T03:18:52.684Z,7.00
2024-01-05T03:21:20.680Z,6.90
2024-01-05T03:23:48.546Z,6.90
2024-01-05T03:26:16.505Z,7.00
2024-01-05T03:28:44.363Z,7.00
2024-01-05T03:31:15.561Z,7.20
2024-01-05T03:33:46.196Z,7.20
2024-01-05T03:36:14.347Z,7.30
2024-01-05T03:38:42.990Z,7.40
2024-01-05T03:41:10.851Z,7.40
2024-01-05T03:43:38.741Z,7.60
2024-01-05T03:46:06.878Z,7.80
2024-01-05T03:48:34.856Z,8.00
2024-01-05T03:51:04.635Z,8.40
2024-01-05T03:53:32.672Z,8.70
2024-01-05T03:56:00.575Z,8.80
2024-01-05T03:58:29.321Z,9.00
2024-01-05T04:00:57.538Z,9.10
2024-01-05T04:03:25.672Z,9.10
2024-01-05T04:05:53.758Z,9.10
2024-01-05T04:08:22.999Z,9.10
2024-01-05T04:10:50.905Z,9.10
2024-01-05T04:13:18.761Z,9.00
2024-01-05T04:15:46.745Z,8.90
2024-01-05T04:18:14.878Z,8.90
2024-01-05T04:20:42.855Z,8.90
2024-01-05T04:23:10.822Z,9.00
2024-01-05T04:25:40.006Z,9.00
2024-01-05T04:28:07.890Z,8.90
2024-01-05T04:30:37.273Z,9.00
2024-01-05T04:33:05.983Z,9.00
2024-01-05T04:35:34.028Z,9.10
2024-01-05T04:38:01.894Z,9.30
2024-01-05T04:40:29.722Z,9.30
2024-01-05T04:42:58.916Z,9.40
2024-01-05T04:45:26.895Z,9.50
2024-01-05T04:47:54.771Z,9.50
2024-01-05T04:50:22.649Z,9.60
2024-01-05T04:52:50.498Z,9.70
2024-01-05T04:55:18.385Z,9.70
2024-01-05T04:57:46.705Z,9.80
2024-01-05T05:00:17.002Z,9.80
2024-01-05T05:02:44.937Z,9.80
2024-01-05T05:05:12.877Z,9.80
2024-01-05T05:07:40.755Z,9.80
2024-01-05T05:10:09.749Z,9.70
2024-01-05T05:12:37.585Z,9.70
2024-01-05T05:15:06.399Z,9.70
2024-01-05T05:17:35.655Z,9.70
2024-01-05T05:20:04.367Z,9.80
2024-01-05T05:22:32.206Z,9.80
2024-01-05T05:25:00.069Z,9.90
2024-01-05T05:27:27.965Z,9.90
2024-01-05T05:29:55.973Z,9.90
2024-01-05T05:32:23.985Z,9.90
2024-01-05T05:34:53.442Z,9.90
2024-01-05T05:37:21.451Z,9.90
2024-01-05T05:39:49.264Z,9.90
2024-01-05T05:42:17.219Z,9.90
2024-01-05T05:44:45.509Z,9.80
2024-01-05T05:47:13.646Z,9.70
2024-01-05T05:49:41.564Z,9.80
2024-01-05T05:52:10.857Z,9.80
2024-01-05T05:54:38.697Z,9.80
2024-01-05T05:57:09.218Z,9.80
2024-01-05T05:59:37.171Z,9.80
2024-01-05T06:02:05.158Z,9.90
2024-01-05T06:04:33.018Z,9.90
2024-01-05T06:07:01.103Z,9.80
2024-01-05T06:09:30.431Z,9.80
2024-01-05T06:11:58.323Z,9.80
2024-01-05T06:14:26.184Z,9.70
2024-01-05T06:16:54.015Z,9.80
2024-01-05T06:19:22.290Z,9.80
2024-01-05T06:21:50.249Z,9.80
2024-01-05T06:24:18.176Z,9.80
2024-01-05T06:26:47.377Z,9.80
2024-01-05T06:29:15.204Z,9.80
2024-01-05T06:31:43.330Z,9.80
2024-01-05T06:34:11.464Z,9.80
2024-01-05T06:36:39.512Z,9.90
2024-01-05T06:39:07.664Z,9.80
2024-01-05T06:41:35.488Z,9.90
2024-01-05T06:44:05.761Z,9.90
2024-01-05T06:46:33.932Z,9.80
2024-01-05T06:49:02.230Z,9.80
2024-01-05T06:51:31.529Z,9.90
2024-01-05T06:54:00.317Z,9.90
2024-01-05T06:56:33.027Z,9.90
2024-01-05T06:59:01.238Z,10.00
2024-01-05T07:01:30.634Z,9.90
2024-01-05T07:03:58.600Z,9.90
2024-01-05T07:06:26.581Z,9.90
2024-01-05T07:08:54.823Z,10.00
2024-01-05T07:11:23.489Z,10.10
2024-01-05T07:13:52.242Z,10.00
2024-01-05T07:16:19.776Z,9.90
2024-01-05T07:18:49.598Z,9.90
2024-01-05T07:21:18.362Z,9.80
2024-01-05T07:23:47.005Z,9.80
2024-01-05T07:26:15.123Z,9.70
2024-01-05T07:28:42.963Z,9.80
2024-01-05T07:31:11.543Z,9.80
2024-01-05T07:33:41.703Z,9.70
2024-01-05T07:36:10.977Z,9.70
2024-01-05T07:38:38.869Z,9.60
2024-01-05T07:41:06.723Z,9.60
2024-01-05T07:43:34.940Z,9.40
2024-01-05T07:46:03.857Z,9.40
2024-01-05T07:48:31.842Z,9.50
2024-01-05T07:50:59.796Z,9.60
2024-01-05T07:53:29.074Z,9.60
2024-01-05T07:55:56.888Z,9.60
2024-01-05T07:58:24.985Z,9.60
2024-01-05T08:00:52.916Z,9.70
2024-01-05T08:03:20.937Z,9.70
2024-01-05T08:05:49.085Z,9.70
2024-01-05T08:08:16.996Z,9.70
2024-01-05T08:10:46.305Z,9.80
2024-01-05T08:13:14.133Z,9.80
2024-01-05T08:15:42.092Z,9.80
2024-01-05T08:18:10.742Z,9.80
2024-01-05T08:20:38.791Z,9.90
2024-01-05T08:23:06.830Z,9.90
2024-01-05T08:25:34.874Z,9.90
2024-01-05T08:28:04.207Z,10.00
2024-01-05T08:30:33.016Z,10.10
2024-01-05T08:33:01.091Z,10.10
2024-01-05T08:35:30.921Z,10.10
2024-01-05T08:37:58.788Z,10.10
2024-01-05T08:40:28.469Z,10.20
2024-01-05T08:42:56.552Z,10.10
2024-01-05T08:45:25.832Z,10.10
2024-01-05T08:47:54.152Z,10.10
2024-01-05T08:50:22.120Z,10.10
2024-01-05T08:52:50.244Z,10.10
2024-01-05T08:55:18.930Z,10.20
2024-01-05T08:57:48.247Z,10.20
2024-01-05T09:00:16.574Z,10.20
2024-01-05T09:02:45.915Z,10.30
2024-01-05T09:05:13.953Z,10.30
2024-01-05T09:07:41.888Z,10.30
2024-01-05T09:10:10.348Z,10.30
2024-01-05T09:12:39.751Z,10.30
2024-01-05T09:15:09.951Z,10.30
2024-01-05T09:17:37.977Z,10.30
2024-01-05T09:20:09.257Z,10.20
2024-01-05T09:22:38.655Z,10.30
2024-01-05T09:25:07.948Z,10.20
2024-01-05T09:27:36.051Z,10.20
2024-01-05T09:30:04.570Z,10.20
2024-01-05T09:32:32.900Z,10.10
2024-01-05T09:35:00.835Z,10.00
2024-01-05T09:37:30.038Z,9.90
2024-01-05T09:39:57.859Z,9.70
2024-01-05T09:42:27.627Z,9.70
2024-01-05T09:44:56.062Z,9.60
2024-01-05T09:47:24.213Z,9.60
2024-01-05T09:49:52.375Z,9.50
2024-01-05T09:52:22.228Z,9.40
2024-01-05T09:54:51.978Z,9.40
2024-01-05T09:57:20.092Z,9.40
2024-01-05T09:59:49.218Z,9.40
2024-01-05T10:02:23.501Z,9.40
2024-01-05T10:04:51.491Z,9.40
2024-01-05T10:07:19.575Z,9.30
2024-01-05T10:09:54.602Z,9.30
2024-01-05T10:12:22.686Z,9.20
2024-01-05T10:14:50.717Z,9.30
2024-01-05T10:17:18.947Z,9.30
2024-01-05T10:19:47.471Z,9.30
2024-01-05T10:22:16.760Z,9.30
2024-01-05T10:24:44.911Z,9.30
2024-01-05T10:27:15.520Z,9.30
2024-01-05T10:29:45.493Z,9.30
2024-01-05T10:32:18.803Z,9.30
2024-01-05T10:34:48.311Z,9.40
2024-01-05T10:37:17.071Z,9.30
2024-01-05T10:39:48.437Z,9.30
2024-01-05T10:42:22.437Z,9.40
2024-01-05T10:44:52.459Z,9.30
2024-01-05T10:47:22.874Z,9.30
2024-01-05T10:49:53.104Z,9.30
2024-01-05T10:52:22.924Z,9.30
2024-01-05T10:54:53.401Z,9.30
2024-01-05T10:57:24.574Z,9.30
2024-01-05T10:59:55.274Z,9.30
2024-01-05T11:02:26.822Z,9.20
2024-01-05T11:05:02.450Z,9.20
2024-01-05T11:07:34.899Z,9.20
2024-01-05T11:10:14.887Z,9.30
2024-01-05T11:13:00.585Z,9.30
2024-01-05T11:15:40.926Z,9.30
2024-01-05T11:18:40.808Z,9.30
2024-01-05T11:21:13.007Z,9.40
2024-01-05T11:23:43.394Z,9.40
2024-01-05T11:26:32.763Z,9.40
2024-01-05T11:29:02.176Z,9.40
2024-01-05T11:31:52.059Z,9.40
2024-01-05T11:34:32.984Z,9.50
2024-01-05T11:37:01.448Z,9.50
2024-01-05T11:39:47.018Z,9.50
2024-01-05T11:42:29.650Z,9.50
2024-01-05T11:45:01.662Z,9.60
2024-01-05T11:47:46.112Z,9.60
2024-01-05T11:50:32.042Z,9.60
2024-01-05T11:53:14.560Z,9.60
2024-01-05T11:55:48.991Z,9.60
2024-01-05T11:58:22.019Z,9.70
2024-01-05T12:00:53.058Z,9.80
2024-01-05T12:03:23.240Z,9.80
2024-01-05T12:05:52.217Z,9.90
2024-01-05T12:08:20.544Z,9.90
2024-01-05T12:10:54.009Z,9.90
2024-01-05T12:13:23.538Z,10.00
2024-01-05T12:16:01.000Z,10.10
2024-01-05T12:18:37.515Z,10.10
2024-01-05T12:21:08.838Z,10.10
2024-01-05T12:23:38.647Z,10.10
2024-01-05T12:26:08.121Z,10.10
2024-01-05T12:28:37.749Z,10.10
2024-01-05T12:31:08.896Z,10.10
2024-01-05T12:33:39.023Z,10.10
2024-01-05T12:36:11.189Z,10.20
2024-01-05T12:38:40.021Z,10.20
2024-01-05T12:41:09.616Z,10.20
2024-01-05T12:43:38.026Z,10.20
2024-01-05T12:46:07.455Z,10.20
2024-01-05T12:48:35.622Z,10.20
2024-01-05T12:51:08.080Z,10.30
2024-01-05T12:53:36.399Z,10.30
2024-01-05T12:56:09.192Z,10.40
2024-01-05T12:58:41.132Z,10.40
2024-01-05T13:01:18.210Z,10.40
2024-01-05T13:03:52.853Z,10.50
2024-01-05T13:06:22.333Z,10.50
2024-01-05T13:08:50.562Z,10.40
2024-01-05T13:11:21.508Z,10.40
2024-01-05T13:13:50.908Z,10.40
2024-01-05T13:16:20.589Z,10.30
2024-01-05T13:18:49.533Z,10.20
2024-01-05T13:21:17.774Z,10.20
2024-01-05T13:23:45.884Z,10.20
2024-01-05T13:26:13.827Z,10.20
2024-01-05T13:28:42.471Z,10.20
2024-01-05T13:31:10.949Z,10.20
2024-01-05T13:33:41.771Z,10.10
2024-01-05T13:36:10.212Z,10.10
2024-01-05T13:38:38.150Z,10.10
2024-01-05T13:41:07.192Z,10.00
2024-01-05T13:43:35.876Z,10.10
2024-01-05T13:46:04.768Z,10.10
2024-01-05T13:48:32.808Z,10.10
2024-01-05T13:51:02.155Z,10.10
2024-01-05T13:53:30.033Z,10.00
2024-01-05T13:55:58.506Z,10.00
2024-01-05T13:58:26.517Z,10.00
2024-01-05T14:00:54.860Z,10.00
2024-01-05T14:03:25.127Z,9.90
2024-01-05T14:05:53.111Z,9.90
2024-01-05T14:08:24.266Z,9.90
2024-01-05T14:10:52.351Z,9.90
2024-01-05T14:13:20.183Z,9.80
2024-01-05T14:15:48.141Z,9.80
2024-01-05T14:18:16.180Z,9.80
2024-01-05T14:20:44.221Z,9.70
2024-01-05T14:23:12.309Z,9.70
2024-01-05T14:25:41.484Z,9.70
2024-01-05T14:28:09.332Z,9.70
2024-01-05T14:30:37.222Z,9.70
2024-01-05T14:33:05.773Z,9.60
2024-01-05T14:35:33.692Z,9.70
2024-01-05T14:38:00.575Z,9.70
2024-01-05T14:40:28.409Z,9.70
2024-01-05T14:42:57.650Z,9.70
2024-01-05T14:45:26.011Z,9.60
2024-01-05T14:47:53.900Z,9.70
2024-01-05T14:50:21.843Z,9.60
2024-01-05T14:52:55.958Z,9.60
2024-01-05T14:55:31.769Z,9.50
2024-01-05T14:58:02.160Z,9.60
2024-01-05T15:00:30.087Z,9.50
2024-01-05T15:03:00.606Z,9.50
2024-01-05T15:05:28.799Z,9.40
2024-01-05T15:07:56.726Z,9.40
2024-01-05T15:10:24.621Z,9.40
2024-01-05T15:12:53.599Z,9.40
2024-01-05T15:15:22.887Z,9.30
2024-01-05T15:17:51.183Z,9.30
2024-01-05T15:20:19.222Z,9.20
2024-01-05T15:22:47.174Z,9.20
2024-01-05T15:25:16.183Z,9.10
2024-01-05T15:27:44.327Z,9.10
2024-01-05T15:30:13.281Z,9.00
2024-01-05T15:32:42.575Z,9.00
2024-01-05T15:35:10.805Z,9.00
2024-01-05T15:37:38.752Z,9.00
2024-01-05T15:40:08.128Z,8.90
2024-01-05T15:42:36.091Z,8.80
2024-01-05T15:45:04.081Z,8.80
2024-01-05T15:47:31.999Z,8.80
2024-01-05T15:50:01.532Z,8.70
2024-01-05T15:52:29.439Z,8.70
2024-01-05T15:54:57.322Z,8.60
2024-01-05T15:57:25.316Z,8.60
2024-01-05T15:59:53.124Z,8.60
2024-01-05T16:02:20.955Z,8.70
2024-01-05T16:04:48.762Z,8.70
2024-01-05T16:07:18.430Z,8.60
2024-01-05T16:09:46.297Z,8.60
2024-01-05T16:12:14.224Z,8.70
2024-01-05T16:14:48.004Z,8.60
2024-01-05T16:17:16.105Z,8.60
2024-01-05T16:19:44.012Z,8.50
2024-01-05T16:22:11.863Z,8.50
2024-01-05T16:24:41.682Z,8.60
2024-01-05T16:27:09.555Z,8.60
2024-01-05T16:29:37.410Z,8.50
2024-01-05T16:32:05.701Z,8.50
2024-01-05T16:34:33.617Z,8.50
2024-01-05T16:37:01.466Z,8.50
2024-01-05T16:39:29.353Z,8.50
2024-01-05T16:41:59.179Z,8.40
2024-01-05T16:44:26.970Z,8.40
2024-01-05T16:46:54.780Z,8.40
2024-01-05T16:49:22.746Z,8.40
2024-01-05T16:51:50.732Z,8.40
2024-01-05T16:54:20.239Z,8.40
2024-01-05T16:56:51.555Z,8.50
2024-01-05T16:59:24.254Z,8.40
2024-01-05T17:01:52.135Z,8.40
2024-01-05T17:04:22.332Z,8.40
2024-01-05T17:06:53.307Z,8.50
2024-01-05T17:09:21.879Z,8.40
2024-01-05T17:11:49.770Z,8.40
2024-01-05T17:14:17.865Z,8.30
2024-01-05T17:16:49.139Z,8.30
2024-01-05T17:19:17.433Z,8.20
2024-01-05T17:21:45.423Z,8.20
2024-01-05T17:24:13.384Z,8.20
2024-01-05T17:26:41.706Z,8.20
2024-01-05T17:29:09.563Z,8.10
2024-01-05T17:31:37.644Z,8.10
2024-01-05T17:34:07.378Z,8.10
2024-01-05T17:36:40.574Z,8.00
2024-01-05T17:39:08.609Z,8.00
2024-01-05T17:41:36.848Z,7.90
2024-01-05T17:44:04.927Z,8.00
2024-01-05T17:46:32.896Z,8.00
2024-01-05T17:49:00.796Z,8.10
2024-01-05T17:51:36.003Z,8.00
2024-01-05T17:54:03.922Z,8.00
2024-01-05T17:56:34.211Z,8.00
2024-01-05T17:59:04.408Z,7.90
2024-01-05T18:01:32.715Z,8.00
2024-01-05T18:04:01.188Z,8.10
2024-01-05T18:06:30.614Z,8.10
2024-01-05T18:08:59.543Z,8.10
2024-01-05T18:11:28.390Z,8.00
2024-01-05T18:13:56.890Z,8.10
2024-01-05T18:16:26.107Z,8.00
2024-01-05T18:18:54.410Z,7.90
2024-01-05T18:21:25.580Z,7.90
2024-01-05T18:23:55.660Z,8.00
2024-01-05T18:26:24.555Z,7.90
2024-01-05T18:28:52.765Z,7.90
2024-01-05T18:31:26.097Z,8.00
2024-01-05T18:33:54.256Z,7.90
2024-01-05T18:36:22.546Z,7.90
2024-01-05T18:38:51.012Z,7.90
2024-01-05T18:41:25.911Z,7.90
2024-01-05T18:43:53.943Z,7.80
2024-01-05T18:46:21.970Z,7.80
2024-01-05T18:48:50.184Z,7.80
2024-01-05T18:51:18.664Z,7.80
2024-01-05T18:53:47.274Z,7.70
2024-01-05T18:56:15.146Z,7.80
2024-01-05T18:58:44.387Z,7.70
2024-01-05T19:01:12.689Z,7.60
2024-01-05T19:03:40.666Z,7.80
2024-01-05T19:06:09.039Z,7.70
2024-01-05T19:08:38.421Z,7.70
2024-01-05T19:11:06.482Z,7.70
2024-01-05T19:13:34.475Z,7.60
2024-01-05T19:16:04.038Z,7.50
2024-01-05T19:18:32.060Z,7.50
2024-01-05T19:20:59.954Z,7.50
2024-01-05T19:23:28.015Z,7.50
2024-01-05T19:25:55.895Z,7.60
2024-01-05T19:28:24.237Z,7.70
2024-01-05T19:30:52.197Z,7.60
2024-01-05T19:33:21.610Z,7.50
2024-01-05T19:35:49.616Z,7.60
2024-01-05T19:38:17.520Z,7.60
2024-01-05T19:40:45.501Z,7.60
2024-01-05T19:43:13.567Z,7.70
2024-01-05T19:45:42.416Z,7.80
2024-01-05T19:48:10.780Z,7.80
2024-01-05T19:50:40.055Z,7.80
2024-01-05T19:53:07.881Z,7.70
2024-01-05T19:55:35.752Z,7.70
2024-01-05T19:58:03.620Z,7.70
2024-01-05T20:00:31.612Z,7.70
2024-01-05T20:02:59.667Z,7.70
2024-01-05T20:05:27.621Z,7.70
2024-01-05T20:07:59.657Z,7.70
2024-01-05T20:10:28.605Z,7.70
2024-01-05T20:12:57.104Z,7.70
2024-01-05T20:15:26.506Z,7.70
2024-01-05T20:17:55.262Z,7.60
2024-01-05T20:20:23.496Z,7.60
2024-01-05T20:22:51.396Z,7.60
2024-01-05T20:25:20.851Z,7.70
2024-01-05T20:27:49.679Z,7.70
2024-01-05T20:30:18.449Z,7.70
2024-01-05T20:32:46.415Z,7.80
2024-01-05T20:35:14.326Z,7.80
2024-01-05T20:37:42.163Z,7.80
2024-01-05T20:40:11.109Z,7.70
2024-01-05T20:42:40.410Z,7.80
2024-01-05T20:45:12.638Z,8.00
2024-01-05T20:47:41.005Z,8.00
2024-01-05T20:50:09.746Z,8.00
2024-01-05T20:52:38.690Z,7.90
2024-01-05T20:55:07.621Z,7.80
2024-01-05T20:57:35.698Z,7.70
2024-01-05T21:00:05.859Z,7.60
2024-01-05T21:02:33.757Z,7.60
2024-01-05T21:05:01.610Z,7.50
2024-01-05T21:07:29.555Z,7.60
2024-01-05T21:09:57.496Z,7.60
2024-01-05T21:12:25.447Z,7.60
2024-01-05T21:14:53.347Z,7.60
2024-01-05T21:17:23.135Z,7.60
2024-01-05T21:19:51.263Z,7.60
2024-01-05T21:22:19.746Z,7.60
2024-01-05T21:24:51.498Z,7.60
2024-01-05T21:27:19.994Z,7.60
2024-01-05T21:29:47.918Z,7.60
2024-01-05T21:32:20.506Z,7.80
2024-01-05T21:34:49.939Z,7.80
2024-01-05T21:37:17.974Z,7.80
2024-01-05T21:39:45.943Z,7.80
2024-01-05T21:42:14.049Z,7.80
2024-01-05T21:44:42.156Z,7.90
2024-01-05T21:47:09.999Z,7.90
2024-01-05T21:49:39.813Z,7.90
2024-01-05T21:52:09.595Z,7.90
2024-01-05T21:54:38.008Z,7.90
2024-01-05T21:57:06.565Z,7.90
2024-01-05T21:59:34.827Z,7.80
2024-01-05T22:02:03.116Z,7.90
2024-01-05T22:04:31.213Z,7.80
2024-01-05T22:07:01.974Z,7.80
2024-01-05T22:09:31.500Z,7.80
2024-01-05T22:11:59.369Z,7.80
2024-01-05T22:14:27.709Z,7.80
2024-01-05T22:16:55.842Z,7.80
2024-01-05T22:19:24.024Z,7.80
2024-01-05T22:21:52.170Z,7.70
2024-01-05T22:24:20.113Z,7.70
2024-01-05T22:26:49.773Z,7.70
2024-01-05T22:29:17.742Z,7.70
2024-01-05T22:31:47.251Z,7.70
2024-01-05T22:34:15.457Z,7.70
2024-01-05T22:36:44.438Z,7.70
2024-01-05T22:39:13.506Z,7.70
2024-01-05T22:41:41.670Z,7.70
2024-01-05T22:44:10.866Z,7.70
2024-01-05T22:46:39.147Z,7.70
2024-01-05T22:49:07.196Z,7.70
2024-01-05T22:51:35.152Z,7.70
2024-01-05T22:54:04.770Z,7.70
2024-01-05T22:56:32.820Z,7.70
2024-01-05T22:59:00.837Z,7.60
2024-01-05T23:01:30.090Z,7.60
2024-01-05T23:03:58.131Z,7.60
2024-01-05T23:06:26.270Z,7.70
2024-01-05T23:08:54.238Z,7.60
2024-01-05T23:11:22.091Z,7.60
2024-01-05T23:13:49.998Z,7.60
2024-01-05T23:16:17.877Z,7.50
2024-01-05T23:18:47.257Z,7.40
2024-01-05T23:21:15.292Z,7.40
2024-01-05T23:23:43.229Z,7.40
2024-01-05T23:26:15.973Z,7.40
2024-01-05T23:28:44.026Z,7.40
2024-01-05T23:31:12.157Z,7.30
2024-01-05T23:33:40.461Z,7.20
2024-01-05T23:36:10.332Z,7.10
2024-01-05T23:38:38.227Z,7.00
2024-01-05T23:41:06.335Z,7.00
2024-01-05T23:43:34.385Z,6.90
2024-01-05T23:46:02.260Z,6.90
2024-01-05T23:48:30.137Z,7.00
2024-01-05T23:50:58.073Z,6.90
2024-01-05T23:53:27.283Z,6.90
2024-01-05T23:55:55.098Z,6.80
2024-01-05T23:58:22.936Z,6.80
